Time;durP1;ratioP1;P1;durP2;ratioP2;P2;SDS_P1;SDS_P2;PMS_P1;PMS_P2;Temp;Humidity;BMP_temperature;BMP_pressure;BME280_temperature;BME280_humidity;BME280_pressure;Samples;Min_cycle;Max_cycle;Signal;HPM_P1;HPM_P2
2021/04/17 00:00:08;;;;;;;;;;;;;;;21.05;46.65;101873.78;2086536;28;5061;-72
2021/04/17 00:01:09;;;;;;;;;;;;;;;21.05;46.63;101871.75;2085539;28;4004;-72
2021/04/17 00:02:10;;;;;;;;;;;;;;;21.05;46.54;101873.78;2086222;28;3972;-72
2021/04/17 00:03:11;;;;;;;;;;;;;;;21.05;46.41;101877.44;2085596;28;5027;-72
2021/04/17 00:04:12;;;;;;;;;;;;;;;21.05;46.58;101874.59;2087074;28;3949;-72
2021/04/17 00:05:12;;;;;;;;;;;;;;;21.05;46.54;101874.59;2087108;28;3983;-72
2021/04/17 00:06:13;;;;;;;;;;;;;;;21.06;46.38;101875.44;2086087;28;3982;-73
2021/04/17 00:07:14;;;;;;;;;;;;;;;21.05;46.47;101871.75;2086481;28;4098;-72
2021/04/17 00:08:15;;;;;;;;;;;;;;;21.06;46.59;101879.16;2076672;28;3893;-72
2021/04/17 00:09:15;;;;;;;;;;;;;;;21.06;46.69;101876.31;2077365;28;3997;-71
2021/04/17 00:10:16;;;;;;;;;;;;;;;21.06;46.72;101867.75;2085982;28;3780;-74
2021/04/17 00:11:17;;;;;;;;;;;;;;;21.07;46.70;101868.59;2086104;28;5076;-75
2021/04/17 00:12:17;;;;;;;;;;;;;;;21.07;46.78;101862.91;2086321;28;4024;-74
2021/04/17 00:13:18;;;;;;;;;;;;;;;21.07;46.65;101862.91;2086576;28;3975;-75
2021/04/17 00:14:19;;;;;;;;;;;;;;;21.08;46.70;101861.72;2086131;28;3984;-75
2021/04/17 00:15:28;;;;;;;;;;;;;;;21.07;46.78;101863.75;2087028;28;4480;-74
2021/04/17 00:16:29;;;;;;;;;;;;;;;21.08;46.97;101867.41;2085719;28;4011;-74
2021/04/17 00:17:30;;;;;;;;;;;;;;;21.08;46.88;101856.88;2085107;28;3899;-73
2021/04/17 00:18:31;;;;;;;;;;;;;;;21.08;46.89;101862.56;2085394;28;3759;-74
2021/04/17 00:19:32;;;;;;;;;;;;;;;21.09;47.04;101863.44;2085939;28;3860;-75
2021/04/17 00:20:33;;;;;;;;;;;;;;;21.08;47.12;101865.41;2086624;28;4029;-75
2021/04/17 00:21:34;;;;;;;;;;;;;;;21.08;46.92;101856.88;2085892;28;4153;-74
2021/04/17 00:22:34;;;;;;;;;;;;;;;21.09;46.91;101864.25;2086983;28;5299;-75
2021/04/17 00:23:35;;;;;;;;;;;;;;;21.09;47.15;101857.72;2085006;28;3854;-75
2021/04/17 00:24:36;;;;;;;;;;;;;;;21.09;47.14;101858.56;2086349;28;3859;-75
2021/04/17 00:25:37;;;;;;;;;;;;;;;21.09;47.18;101852.88;2086877;28;4070;-75
2021/04/17 00:26:37;;;;;;;;;;;;;;;21.08;47.11;101848.34;2086152;28;4106;-74
2021/04/17 00:27:38;;;;;;;;;;;;;;;21.09;47.19;101850.03;2085927;28;4017;-74
2021/04/17 00:28:39;;;;;;;;;;;;;;;21.10;47.24;101850.88;2086137;28;4010;-75
2021/04/17 00:29:40;;;;;;;;;;;;;;;21.10;47.50;101853.72;2085740;28;3876;-76
2021/04/17 00:30:41;;;;;;;;;;;;;;;21.09;47.30;101846.34;2086146;28;3924;-76
2021/04/17 00:31:41;;;;;;;;;;;;;;;21.10;47.46;101843.16;2084945;28;3761;-79
2021/04/17 00:32:42;;;;;;;;;;;;;;;21.10;47.52;101851.69;2086868;28;3843;-73
2021/04/17 00:33:43;;;;;;;;;;;;;;;21.10;47.34;101843.16;2085906;28;4062;-74
2021/04/17 00:34:44;;;;;;;;;;;;;;;21.10;47.32;101842.31;2085432;28;3990;-75
2021/04/17 00:35:45;;;;;;;;;;;;;;;21.10;47.25;101850.88;2085205;28;4135;-73
2021/04/17 00:36:45;;;;;;;;;;;;;;;21.10;47.41;101842.31;2085971;28;4109;-72
2021/04/17 00:37:46;;;;;;;;;;;;;;;21.10;47.43;101837.47;2086313;28;4225;-73
2021/04/17 00:38:47;;;;;;;;;;;;;;;21.10;47.27;101842.31;2086027;28;4052;-74
2021/04/17 00:39:48;;;;;;;;;;;;;;;21.10;47.38;101836.63;2085249;28;4175;-75
2021/04/17 00:40:49;;;;;;;;;;;;;;;21.10;47.26;101836.63;2086706;28;3996;-77
2021/04/17 00:41:49;;;;;;;;;;;;;;;21.10;47.29;101834.63;2085811;28;3994;-78
2021/04/17 00:42:50;;;;;;;;;;;;;;;21.11;47.60;101841.16;2086241;28;4104;-77
2021/04/17 00:43:51;;;;;;;;;;;;;;;21.11;47.53;101832.63;2085294;28;3778;-77
2021/04/17 00:44:52;;;;;;;;;;;;;;;21.12;47.55;101840.00;2084637;28;3905;-76
2021/04/17 00:45:52;;;;;;;;;;;;;;;21.12;47.65;101831.47;2086236;28;3819;-76
2021/04/17 00:46:53;;;;;;;;;;;;;;;21.12;47.71;101837.97;2086185;28;4151;-73
2021/04/17 00:47:54;;;;;;;;;;;;;;;21.13;47.75;101839.66;2085803;28;3807;-75
2021/04/17 00:48:55;;;;;;;;;;;;;;;21.12;48.00;101835.13;2086020;28;4092;-75
2021/04/17 00:49:56;;;;;;;;;;;;;;;21.13;47.88;101827.44;2085755;28;4024;-75
2021/04/17 00:50:56;;;;;;;;;;;;;;;21.13;48.06;101830.28;2084385;28;3860;-75
2021/04/17 00:51:57;;;;;;;;;;;;;;;21.14;48.04;101831.94;2086244;28;3843;-73
2021/04/17 00:52:58;;;;;;;;;;;;;;;21.15;48.08;101832.81;2085820;28;4022;-72
2021/04/17 00:53:59;;;;;;;;;;;;;;;21.15;48.05;101829.97;2086268;28;3876;-75
2021/04/17 00:55:00;;;;;;;;;;;;;;;21.15;48.21;101821.44;2084935;28;4014;-75
2021/04/17 00:56:00;;;;;;;;;;;;;;;21.15;48.14;101821.44;2086015;28;3892;-73
2021/04/17 00:57:01;;;;;;;;;;;;;;;21.15;48.33;101824.28;2086208;28;3786;-74
2021/04/17 00:58:02;;;;;;;;;;;;;;;21.15;48.20;101821.44;2086060;28;3898;-75
2021/04/17 00:59:02;;;;;;;;;;;;;;;21.15;48.31;101822.25;2085015;28;4047;-74
2021/04/17 01:00:03;;;;;;;;;;;;;;;21.15;48.32;101816.56;2086445;28;3940;-73
2021/04/17 01:01:04;;;;;;;;;;;;;;;21.15;48.48;101822.25;2084835;28;4021;-72
2021/04/17 01:02:05;;;;;;;;;;;;;;;21.15;48.45;101819.41;2086485;28;3849;-74
2021/04/17 01:03:06;;;;;;;;;;;;;;;21.15;48.16;101816.56;2085533;28;4052;-73
2021/04/17 01:04:06;;;;;;;;;;;;;;;21.16;48.23;101823.09;2086108;28;3797;-74
2021/04/17 01:05:07;;;;;;;;;;;;;;;21.15;48.29;101816.56;2085837;28;3994;-75
2021/04/17 01:06:08;;;;;;;;;;;;;;;21.14;48.18;101820.56;2086867;28;3838;-75
2021/04/17 01:07:09;;;;;;;;;;;;;;;21.14;48.23;101814.88;2086350;28;5030;-75
2021/04/17 01:08:09;;;;;;;;;;;;;;;21.14;48.04;101814.88;2084740;28;4006;-74
2021/04/17 01:09:10;;;;;;;;;;;;;;;21.13;48.24;101810.38;2086203;28;4174;-75
2021/04/17 01:10:11;;;;;;;;;;;;;;;21.13;47.99;101811.19;2085684;28;3862;-74
2021/04/17 01:11:12;;;;;;;;;;;;;;;21.13;48.23;101814.03;2085004;28;3810;-75
2021/04/17 01:12:12;;;;;;;;;;;;;;;21.14;48.15;101809.19;2085732;28;3994;-75
2021/04/17 01:13:13;;;;;;;;;;;;;;;21.13;48.20;101813.22;2077634;28;4008;-75
2021/04/17 01:14:14;;;;;;;;;;;;;;;21.15;48.05;101810.03;2076638;28;3925;-75
2021/04/17 01:15:15;;;;;;;;;;;;;;;21.14;48.09;101814.88;2086147;28;3837;-75
2021/04/17 01:16:16;;;;;;;;;;;;;;;21.15;48.12;101816.56;2085834;28;4198;-75
2021/04/17 01:17:17;;;;;;;;;;;;;;;21.14;48.16;101809.19;2085781;28;3834;-75
2021/04/17 01:18:18;;;;;;;;;;;;;;;21.16;48.28;101808.88;2084520;28;3987;-73
2021/04/17 01:19:19;;;;;;;;;;;;;;;21.15;48.14;101810.88;2086100;28;3967;-73
2021/04/17 01:20:19;;;;;;;;;;;;;;;21.14;48.09;101814.88;2085705;28;3989;-73
2021/04/17 01:21:20;;;;;;;;;;;;;;;21.13;47.91;101808.34;2085286;28;3951;-73
2021/04/17 01:22:21;;;;;;;;;;;;;;;21.13;47.93;101814.03;2085242;28;4275;-73
2021/04/17 01:23:21;;;;;;;;;;;;;;;21.13;48.04;101813.22;2085625;28;3977;-73
2021/04/17 01:24:22;;;;;;;;;;;;;;;21.13;47.88;101814.03;2085889;28;3912;-73
2021/04/17 01:25:23;;;;;;;;;;;;;;;21.13;48.12;101807.50;2086140;28;3779;-73
2021/04/17 01:26:25;;;;;;;;;;;;;;;21.12;47.94;101808.69;2085414;28;4048;-73
2021/04/17 01:27:25;;;;;;;;;;;;;;;21.12;47.93;101809.53;2082359;28;3975;-72
2021/04/17 01:28:26;;;;;;;;;;;;;;;21.12;47.96;101812.38;2083145;28;5105;-72
2021/04/17 01:29:27;;;;;;;;;;;;;;;21.12;48.07;101806.69;2083423;28;4026;-72
2021/04/17 01:30:28;;;;;;;;;;;;;;;21.12;48.16;101808.69;2084333;28;5093;-75
2021/04/17 01:31:29;;;;;;;;;;;;;;;21.12;48.13;101809.53;2081512;28;4041;-74
2021/04/17 01:32:30;;;;;;;;;;;;;;;21.12;48.05;101808.69;2085869;28;3999;-74
2021/04/17 01:33:32;;;;;;;;;;;;;;;21.10;48.05;101811.03;2084547;28;4014;-73
2021/04/17 01:34:33;;;;;;;;;;;;;;;21.08;47.93;101805.66;2085509;28;3848;-72
2021/04/17 01:35:34;;;;;;;;;;;;;;;21.08;48.07;101810.50;2085252;28;4006;-74
2021/04/17 01:36:35;;;;;;;;;;;;;;;21.09;47.93;101818.72;2085965;28;4002;-75
2021/04/17 01:37:36;;;;;;;;;;;;;;;21.09;48.02;101807.34;2085270;28;4062;-73
2021/04/17 01:38:37;;;;;;;;;;;;;;;21.09;47.79;101807.34;2085051;28;4200;-71
2021/04/17 01:39:38;;;;;;;;;;;;;;;21.10;47.81;101822.41;2085892;28;3871;-75
2021/04/17 01:40:38;;;;;;;;;;;;;;;21.10;47.79;101811.84;2085507;28;4030;-75
2021/04/17 01:41:39;;;;;;;;;;;;;;;21.09;47.76;101815.06;2085696;28;3994;-72
2021/04/17 01:42:40;;;;;;;;;;;;;;;21.10;47.74;101817.56;2085995;28;4079;-75
2021/04/17 01:43:41;;;;;;;;;;;;;;;21.10;47.73;101819.56;2084899;28;3780;-70
2021/04/17 01:44:41;;;;;;;;;;;;;;;21.10;47.72;101809.00;2085241;28;4004;-72
2021/04/17 01:45:42;;;;;;;;;;;;;;;21.11;47.90;101826.91;2083353;28;3991;-76
2021/04/17 01:46:43;;;;;;;;;;;;;;;21.10;47.78;101825.25;2084732;28;4188;-89
2021/04/17 01:47:44;;;;;;;;;;;;;;;21.10;47.90;101820.41;2087103;28;4082;-80
2021/04/17 01:48:45;;;;;;;;;;;;;;;21.10;47.85;101828.94;2085518;28;4035;-76
2021/04/17 01:49:46;;;;;;;;;;;;;;;21.11;47.83;101827.75;2084595;28;3881;-78
2021/04/17 01:50:47;;;;;;;;;;;;;;;21.11;47.79;101829.75;2085184;28;4030;-78
2021/04/17 01:51:49;;;;;;;;;;;;;;;21.10;47.70;101837.47;2084975;28;3858;-79
2021/04/17 01:52:50;;;;;;;;;;;;;;;21.10;47.88;101831.78;2085446;28;4018;-78
2021/04/17 01:53:50;;;;;;;;;;;;;;;21.10;47.94;101830.94;2085932;28;4062;-75
2021/04/17 01:54:51;;;;;;;;;;;;;;;21.10;47.98;101830.94;2085764;28;3831;-75
2021/04/17 01:55:52;;;;;;;;;;;;;;;21.10;47.77;101826.09;2084172;28;5178;-76
2021/04/17 01:56:53;;;;;;;;;;;;;;;21.11;48.00;101832.63;2083065;28;4101;-78
2021/04/17 01:57:53;;;;;;;;;;;;;;;21.10;47.83;101825.25;2086422;28;3845;-75
2021/04/17 01:58:54;;;;;;;;;;;;;;;21.11;47.99;101832.63;2082832;28;4006;-76
2021/04/17 01:59:55;;;;;;;;;;;;;;;21.10;47.97;101822.41;2084240;28;5282;-74
2021/04/17 02:00:55;;;;;;;;;;;;;;;21.10;47.93;101822.41;2085119;28;3975;-75
2021/04/17 02:01:56;;;;;;;;;;;;;;;21.09;48.00;101818.72;2085232;28;4045;-74
2021/04/17 02:02:57;;;;;;;;;;;;;;;21.10;47.92;101823.25;2084812;28;3890;-72
2021/04/17 02:03:58;;;;;;;;;;;;;;;21.10;47.97;101825.25;2085914;28;3887;-72
2021/04/17 02:04:59;;;;;;;;;;;;;;;21.10;48.10;101820.41;2084334;28;5281;-72
2021/04/17 02:06:00;;;;;;;;;;;;;;;21.10;47.76;101814.69;2085369;28;3981;-74
2021/04/17 02:07:01;;;;;;;;;;;;;;;21.09;47.91;101807.34;2084133;28;5128;-74
2021/04/17 02:08:02;;;;;;;;;;;;;;;21.10;47.93;101808.19;2085583;28;3841;-75
2021/04/17 02:09:02;;;;;;;;;;;;;;;21.09;48.03;101801.66;2084787;28;3994;-73
2021/04/17 02:10:05;;;;;;;;;;;;;;;21.09;47.94;101798.81;2085145;28;3932;-73
2021/04/17 02:11:06;;;;;;;;;;;;;;;21.09;47.88;101795.13;2085229;28;4008;-72
2021/04/17 02:12:06;;;;;;;;;;;;;;;21.11;48.12;101798.47;2085217;28;3856;-81
2021/04/17 02:13:07;;;;;;;;;;;;;;;21.11;47.94;101798.47;2084640;28;4080;-79
2021/04/17 02:14:08;;;;;;;;;;;;;;;21.11;48.02;101793.59;2086033;28;4194;-79
2021/04/17 02:15:09;;;;;;;;;;;;;;;21.10;48.11;101789.09;2085897;28;3877;-79
2021/04/17 02:16:10;;;;;;;;;;;;;;;21.10;47.99;101791.94;2086069;28;3968;-79
2021/04/17 02:17:10;;;;;;;;;;;;;;;21.11;47.98;101792.78;2085653;28;4113;-78
2021/04/17 02:18:11;;;;;;;;;;;;;;;21.09;48.08;101784.59;2086583;28;3834;-79
2021/04/17 02:19:12;;;;;;;;;;;;;;;21.10;47.94;101791.94;2085513;28;3975;-78
2021/04/17 02:20:13;;;;;;;;;;;;;;;21.10;47.94;101794.78;2083822;28;4044;-78
2021/04/17 02:21:14;;;;;;;;;;;;;;;21.10;48.12;101791.94;2086722;28;3953;-79
2021/04/17 02:22:14;;;;;;;;;;;;;;;21.10;47.97;101793.94;2085418;28;4005;-79
2021/04/17 02:23:15;;;;;;;;;;;;;;;21.09;47.94;101793.13;2085227;28;4008;-80
2021/04/17 02:24:16;;;;;;;;;;;;;;;21.09;47.96;101787.44;2085169;28;3845;-77
2021/04/17 02:25:17;;;;;;;;;;;;;;;21.10;47.93;101791.94;2084905;28;3773;-78
2021/04/17 02:26:17;;;;;;;;;;;;;;;21.09;48.08;101783.75;2084187;28;3849;-78
2021/04/17 02:27:18;;;;;;;;;;;;;;;21.09;48.16;101781.75;2084660;28;3974;-79
2021/04/17 02:28:19;;;;;;;;;;;;;;;21.09;48.04;101781.75;2084995;28;3802;-84
2021/04/17 02:29:20;;;;;;;;;;;;;;;21.10;48.08;101782.56;2085176;28;5265;-86
2021/04/17 02:30:21;;;;;;;;;;;;;;;21.10;48.23;101786.25;2086598;28;4520;-85
2021/04/17 02:31:21;;;;;;;;;;;;;;;21.09;48.19;101781.75;2084988;28;5269;-79
2021/04/17 02:32:22;;;;;;;;;;;;;;;21.10;48.25;101786.25;2085031;28;4006;-79
2021/04/17 02:33:23;;;;;;;;;;;;;;;21.09;48.15;101784.59;2084971;28;3789;-79
2021/04/17 02:34:24;;;;;;;;;;;;;;;21.10;48.17;101782.56;2085318;28;3912;-79
2021/04/17 02:35:25;;;;;;;;;;;;;;;21.09;48.15;101780.91;2085162;28;4036;-74
2021/04/17 02:36:26;;;;;;;;;;;;;;;21.08;48.01;101777.19;2085057;28;3843;-77
2021/04/17 02:37:27;;;;;;;;;;;;;;;21.09;48.13;101790.28;2083703;28;3868;-77
2021/04/17 02:38:27;;;;;;;;;;;;;;;21.10;48.10;101776.88;2086777;28;3864;-77
2021/04/17 02:39:28;;;;;;;;;;;;;;;21.09;48.12;101778.91;2085592;28;4152;-77
2021/04/17 02:40:29;;;;;;;;;;;;;;;21.09;48.09;101775.22;2084506;28;4031;-77
2021/04/17 02:41:30;;;;;;;;;;;;;;;21.09;48.12;101772.38;2084376;28;3901;-77
2021/04/17 02:42:30;;;;;;;;;;;;;;;21.08;48.30;101774.34;2083655;28;4004;-75
2021/04/17 02:43:31;;;;;;;;;;;;;;;21.09;48.24;101772.38;2085469;28;4022;-78
2021/04/17 02:44:32;;;;;;;;;;;;;;;21.09;48.27;101772.38;2084298;28;3919;-78
2021/04/17 02:45:33;;;;;;;;;;;;;;;21.07;48.17;101772.69;2085106;28;4063;-77
2021/04/17 02:46:33;;;;;;;;;;;;;;;21.08;48.03;101762.97;2083045;28;3982;-79
2021/04/17 02:47:34;;;;;;;;;;;;;;;21.08;48.13;101762.13;2084771;28;4038;-81
2021/04/17 02:48:35;;;;;;;;;;;;;;;21.08;47.98;101770.66;2085405;28;4042;-80
2021/04/17 02:49:37;;;;;;;;;;;;;;;21.08;48.01;101770.66;2084792;28;4018;-79
2021/04/17 02:50:38;;;;;;;;;;;;;;;21.08;48.07;101770.66;2083944;28;4051;-74
2021/04/17 02:51:38;;;;;;;;;;;;;;;21.07;48.16;101769.84;2084797;28;3870;-74
2021/04/17 02:52:39;;;;;;;;;;;;;;;21.08;48.18;101759.28;2085231;28;4028;-75
2021/04/17 02:53:40;;;;;;;;;;;;;;;21.07;48.07;101769.84;2085655;28;4001;-75
2021/04/17 02:54:40;;;;;;;;;;;;;;;21.08;48.01;101770.66;2085217;28;4113;-76
2021/04/17 02:55:41;;;;;;;;;;;;;;;21.08;48.02;101767.81;2085302;28;3879;-76
2021/04/17 02:56:42;;;;;;;;;;;;;;;21.08;48.23;101768.66;2083779;28;3991;-76
2021/04/17 02:57:43;;;;;;;;;;;;;;;21.08;48.17;101767.81;2082056;28;5084;-76
2021/04/17 02:58:43;;;;;;;;;;;;;;;21.09;48.06;101761.00;2086073;28;4077;-77
2021/04/17 02:59:44;;;;;;;;;;;;;;;21.08;48.03;101767.81;2084039;28;4060;-77
2021/04/17 03:00:45;;;;;;;;;;;;;;;21.08;47.97;101754.44;2075503;28;3862;-76
2021/04/17 03:01:45;;;;;;;;;;;;;;;21.08;48.06;101753.59;2076485;28;4010;-76
2021/04/17 03:02:46;;;;;;;;;;;;;;;21.07;48.17;101752.78;2085433;28;4048;-76
2021/04/17 03:03:47;;;;;;;;;;;;;;;21.08;48.08;101759.28;2084191;28;4019;-75
2021/04/17 03:04:48;;;;;;;;;;;;;;;21.08;48.05;101760.13;2085158;28;4099;-75
2021/04/17 03:05:49;;;;;;;;;;;;;;;21.07;48.08;101763.31;2084822;28;5266;-75
2021/04/17 03:06:50;;;;;;;;;;;;;;;21.08;48.05;101764.97;2085099;28;3837;-75
2021/04/17 03:07:50;;;;;;;;;;;;;;;21.07;48.14;101755.63;2083629;28;3850;-75
2021/04/17 03:08:51;;;;;;;;;;;;;;;21.07;48.05;101749.94;2084861;28;3856;-75
2021/04/17 03:09:52;;;;;;;;;;;;;;;21.07;48.09;101752.78;2085307;28;4057;-74
2021/04/17 03:10:53;;;;;;;;;;;;;;;21.08;48.11;101757.28;2085019;28;3869;-75
2021/04/17 03:11:53;;;;;;;;;;;;;;;21.06;48.26;101753.94;2085354;28;3922;-75
2021/04/17 03:12:54;;;;;;;;;;;;;;;21.07;48.07;101760.47;2085363;28;3745;-75
2021/04/17 03:13:55;;;;;;;;;;;;;;;21.06;48.09;101759.63;2085301;28;4079;-75
2021/04/17 03:14:55;;;;;;;;;;;;;;;21.07;48.15;101751.94;2085346;28;3986;-75
2021/04/17 03:15:56;;;;;;;;;;;;;;;21.06;48.18;101745.41;2084592;28;3812;-75
2021/04/17 03:16:57;;;;;;;;;;;;;;;21.07;48.01;101752.78;2084657;28;3848;-75
2021/04/17 03:17:58;;;;;;;;;;;;;;;21.07;48.20;101743.41;2084532;28;4004;-76
2021/04/17 03:18:59;;;;;;;;;;;;;;;21.08;48.39;101753.59;2085477;28;4068;-76
2021/04/17 03:20:01;;;;;;;;;;;;;;;21.07;48.11;101751.94;2084153;28;3854;-75
2021/04/17 03:21:02;;;;;;;;;;;;;;;21.06;48.20;101753.94;2084366;28;4700;-76
2021/04/17 03:22:03;;;;;;;;;;;;;;;21.06;48.17;101744.56;2085264;28;4869;-75
2021/04/17 03:23:03;;;;;;;;;;;;;;;21.08;48.19;101753.59;2082867;28;4072;-75
2021/04/17 03:24:04;;;;;;;;;;;;;;;21.07;48.07;101741.38;2085339;28;4136;-76
2021/04/17 03:25:05;;;;;;;;;;;;;;;21.08;48.09;101747.91;2085932;28;5158;-75
2021/04/17 03:26:05;;;;;;;;;;;;;;;21.08;48.02;101742.22;2084551;28;3839;-75
2021/04/17 03:27:06;;;;;;;;;;;;;;;21.08;48.14;101748.75;2085000;28;3816;-75
2021/04/17 03:28:07;;;;;;;;;;;;;;;21.09;48.13;101750.44;2083727;28;4198;-78
2021/04/17 03:29:08;;;;;;;;;;;;;;;21.09;48.20;101739.06;2085739;28;3840;-75
2021/04/17 03:30:09;;;;;;;;;;;;;;;21.10;48.16;101742.72;2085351;28;3948;-76
2021/04/17 03:31:09;;;;;;;;;;;;;;;21.09;48.15;101739.06;2075743;28;4243;-78
2021/04/17 03:32:10;;;;;;;;;;;;;;;21.10;48.27;101742.72;2075271;28;5066;-76
2021/04/17 03:33:11;;;;;;;;;;;;;;;21.10;48.26;101745.56;2084588;28;4030;-76
2021/04/17 03:34:12;;;;;;;;;;;;;;;21.10;48.38;101737.03;2084590;28;3807;-75
2021/04/17 03:35:12;;;;;;;;;;;;;;;21.10;48.35;101739.88;2084105;28;4018;-77
2021/04/17 03:36:13;;;;;;;;;;;;;;;21.10;48.31;101742.72;2085393;28;3950;-76
2021/04/17 03:37:14;;;;;;;;;;;;;;;21.09;48.35;101738.22;2083077;28;3827;-73
2021/04/17 03:38:15;;;;;;;;;;;;;;;21.08;48.39;101736.53;2083421;28;4070;-75
2021/04/17 03:39:15;;;;;;;;;;;;;;;21.09;48.32;101736.22;2084639;28;3943;-72
2021/04/17 03:40:16;;;;;;;;;;;;;;;21.08;48.30;101736.53;2082744;28;3965;-73
2021/04/17 03:41:17;;;;;;;;;;;;;;;21.08;48.46;101731.66;2085235;28;3981;-73
2021/04/17 03:42:17;;;;;;;;;;;;;;;21.08;48.25;101731.66;2083298;28;4014;-74
2021/04/17 03:43:18;;;;;;;;;;;;;;;21.09;48.50;101733.38;2085161;28;3950;-74
2021/04/17 03:44:19;;;;;;;;;;;;;;;21.09;48.36;101739.06;2085253;28;3994;-74
2021/04/17 03:45:20;;;;;;;;;;;;;;;21.10;48.75;101737.88;2085241;28;3941;-76
2021/04/17 03:46:22;;;;;;;;;;;;;;;21.11;48.53;101733.00;2086264;28;3981;-80
2021/04/17 03:47:23;;;;;;;;;;;;;;;21.07;47.41;101737.72;2085283;28;3995;-82
2021/04/17 03:48:24;;;;;;;;;;;;;;;20.95;45.87;101738.34;2085879;28;3979;-82
2021/04/17 03:49:25;;;;;;;;;;;;;;;20.85;45.51;101739.50;2084761;28;3934;-80
2021/04/17 03:50:25;;;;;;;;;;;;;;;20.77;44.13;101739.47;2085183;28;3835;-72
2021/04/17 03:51:26;;;;;;;;;;;;;;;20.68;43.41;101740.28;2086942;28;4015;-78
2021/04/17 03:52:27;;;;;;;;;;;;;;;20.64;43.00;101742.06;2084896;28;4040;-81
2021/04/17 03:53:28;;;;;;;;;;;;;;;20.59;43.05;101741.38;2085554;28;3872;-81
2021/04/17 03:54:28;;;;;;;;;;;;;;;20.57;42.72;101738.06;2085151;28;3892;-84
2021/04/17 03:55:29;;;;;;;;;;;;;;;20.55;42.10;101744.06;2083971;28;4076;-79
2021/04/17 03:56:30;;;;;;;;;;;;;;;20.50;41.50;101743.34;2085380;28;5139;-80
2021/04/17 03:57:30;;;;;;;;;;;;;;;20.46;41.33;101743.16;2085258;28;4102;-76
2021/04/17 03:58:31;;;;;;;;;;;;;;;20.44;40.76;101740.63;2084943;28;4211;-81
2021/04/17 03:59:32;;;;;;;;;;;;;;;20.39;40.14;101743.59;2084917;28;3871;-81
2021/04/17 04:00:33;;;;;;;;;;;;;;;20.35;40.00;101742.59;2084799;28;3856;-80
2021/04/17 04:01:34;;;;;;;;;;;;;;;20.34;40.16;101746.59;2085032;28;4076;-82
2021/04/17 04:02:35;;;;;;;;;;;;;;;20.32;39.73;101742.38;2084974;28;4026;-81
2021/04/17 04:03:36;;;;;;;;;;;;;;;20.30;39.28;101748.41;2085067;28;4086;-76
2021/04/17 04:04:36;;;;;;;;;;;;;;;20.27;39.25;101751.09;2085722;28;3852;-80
2021/04/17 04:05:37;;;;;;;;;;;;;;;20.24;39.34;101746.88;2085193;28;3859;-78
2021/04/17 04:06:38;;;;;;;;;;;;;;;20.20;38.57;101760.06;2085213;28;3981;-77
2021/04/17 04:07:39;;;;;;;;;;;;;;;20.18;38.80;101751.88;2084296;28;4027;-77
2021/04/17 04:08:39;;;;;;;;;;;;;;;20.17;38.60;101758.69;2084888;28;4230;-75
2021/04/17 04:09:40;;;;;;;;;;;;;;;20.15;38.52;101748.81;2085259;28;4064;-73
2021/04/17 04:10:41;;;;;;;;;;;;;;;20.13;38.44;101752.00;2085023;28;5142;-76
2021/04/17 04:11:42;;;;;;;;;;;;;;;20.13;38.38;101754.00;2085077;28;4046;-82
2021/04/17 04:12:42;;;;;;;;;;;;;;;20.10;38.40;101755.50;2084943;28;4020;-73
2021/04/17 04:13:43;;;;;;;;;;;;;;;20.11;38.72;101753.47;2084463;28;3910;-76
2021/04/17 04:14:44;;;;;;;;;;;;;;;20.10;38.72;101760.34;2084901;28;4028;-74
2021/04/17 04:15:44;;;;;;;;;;;;;;;20.06;38.10;101756.44;2085309;28;4161;-75
2021/04/17 04:16:45;;;;;;;;;;;;;;;20.03;37.96;101757.94;2084209;28;3967;-73
2021/04/17 04:17:46;;;;;;;;;;;;;;;20.01;37.95;101751.72;2085081;28;4079;-76
2021/04/17 04:18:47;;;;;;;;;;;;;;;20.00;38.30;101750.91;2084670;28;3850;-76
2021/04/17 04:19:48;;;;;;;;;;;;;;;20.01;38.44;101754.56;2085227;28;3828;-74
2021/04/17 04:20:48;;;;;;;;;;;;;;;19.99;38.24;101752.06;2084736;28;4016;-77
2021/04/17 04:21:49;;;;;;;;;;;;;;;19.96;37.94;101747.03;2085019;28;4025;-75
2021/04/17 04:22:50;;;;;;;;;;;;;;;19.96;38.20;101752.72;2084872;28;5106;-81
2021/04/17 04:23:51;;;;;;;;;;;;;;;19.95;38.02;101751.03;2085281;28;4135;-80
2021/04/17 04:24:51;;;;;;;;;;;;;;;19.93;37.93;101750.53;2084479;28;3993;-76
2021/04/17 04:25:52;;;;;;;;;;;;;;;19.87;37.70;101748.13;2084566;28;4002;-81
2021/04/17 04:26:53;;;;;;;;;;;;;;;19.86;37.95;101752.97;2084980;28;4037;-80
2021/04/17 04:27:55;;;;;;;;;;;;;;;19.82;36.72;101751.09;2084872;28;4112;-78
2021/04/17 04:28:56;;;;;;;;;;;;;;;19.62;37.20;101743.91;2084640;28;4020;-73
2021/04/17 04:29:56;;;;;;;;;;;;;;;19.72;38.13;101741.69;2084776;28;4010;-73
2021/04/17 04:30:58;;;;;;;;;;;;;;;19.84;38.62;101743.94;2084827;28;3999;-73
2021/04/17 04:31:58;;;;;;;;;;;;;;;19.93;39.07;101749.66;2085160;28;3973;-74
2021/04/17 04:32:59;;;;;;;;;;;;;;;19.99;39.37;101745.56;2084876;28;4918;-72
2021/04/17 04:34:00;;;;;;;;;;;;;;;20.03;39.75;101740.91;2085285;28;4028;-73
2021/04/17 04:35:01;;;;;;;;;;;;;;;20.07;40.03;101733.41;2084325;28;3890;-73
2021/04/17 04:36:02;;;;;;;;;;;;;;;20.10;40.11;101743.28;2084999;28;6125;-73
2021/04/17 04:37:02;;;;;;;;;;;;;;;20.12;40.43;101738.09;2085356;28;4023;-72
2021/04/17 04:38:03;;;;;;;;;;;;;;;20.12;40.62;101741.78;2084673;28;5101;-74
2021/04/17 04:39:04;;;;;;;;;;;;;;;20.16;40.72;101750.50;2076490;28;4105;-73
2021/04/17 04:40:04;;;;;;;;;;;;;;;20.17;40.97;101740.81;2074492;28;3997;-73
2021/04/17 04:41:05;;;;;;;;;;;;;;;20.18;41.04;101737.66;2084548;28;4179;-73
2021/04/17 04:42:06;;;;;;;;;;;;;;;20.20;41.23;101746.69;2085112;28;4063;-75
2021/04/17 04:43:08;;;;;;;;;;;;;;;20.20;41.35;101741.00;2085183;28;3987;-73
2021/04/17 04:44:09;;;;;;;;;;;;;;;20.22;41.30;101743.53;2085091;28;3853;-75
2021/04/17 04:45:09;;;;;;;;;;;;;;;20.23;41.60;101742.34;2085123;28;5037;-75
2021/04/17 04:46:10;;;;;;;;;;;;;;;20.23;41.68;101742.34;2085059;28;4009;-73
2021/04/17 04:47:11;;;;;;;;;;;;;;;20.25;41.74;101749.38;2086142;28;3856;-73
2021/04/17 04:48:12;;;;;;;;;;;;;;;20.25;41.88;101743.69;2086192;28;3950;-81
2021/04/17 04:49:14;;;;;;;;;;;;;;;20.27;42.05;101734.88;2086725;28;3965;-71
2021/04/17 04:50:15;;;;;;;;;;;;;;;20.27;42.11;101743.38;2086051;28;3910;-72
2021/04/17 04:51:16;;;;;;;;;;;;;;;20.27;42.10;101740.53;2086597;28;3977;-77
2021/04/17 04:52:17;;;;;;;;;;;;;;;20.29;42.28;101745.88;2086273;28;3986;-75
2021/04/17 04:53:19;;;;;;;;;;;;;;;20.30;42.36;101747.59;2086425;28;3873;-75
2021/04/17 04:54:20;;;;;;;;;;;;;;;20.30;42.46;101737.06;2086968;28;3862;-76
2021/04/17 04:55:20;;;;;;;;;;;;;;;20.31;42.49;101741.56;2086036;28;5030;-76
2021/04/17 04:56:21;;;;;;;;;;;;;;;20.32;42.47;101748.06;2086436;28;3834;-75
2021/04/17 04:57:25;;;;;;;;;;;;;;;20.32;42.66;101751.78;2086365;28;5239;-75
2021/04/17 04:58:26;;;;;;;;;;;;;;;20.33;42.74;101744.91;2085891;28;3971;-74
2021/04/17 04:59:26;;;;;;;;;;;;;;;20.31;42.78;101741.56;2086264;28;4056;-74
2021/04/17 05:00:27;;;;;;;;;;;;;;;20.34;42.77;101745.75;2086046;28;4025;-76
2021/04/17 05:01:28;;;;;;;;;;;;;;;20.34;42.92;101749.44;2086415;28;4030;-76
2021/04/17 05:02:29;;;;;;;;;;;;;;;20.35;42.99;101751.13;2085765;28;4009;-77
2021/04/17 05:03:29;;;;;;;;;;;;;;;20.35;42.89;101744.59;2085657;28;3973;-77
2021/04/17 05:04:30;;;;;;;;;;;;;;;20.35;43.12;101742.59;2086211;28;4076;-75
2021/04/17 05:05:31;;;;;;;;;;;;;;;20.36;43.21;101738.56;2086417;28;4028;-74
2021/04/17 05:06:32;;;;;;;;;;;;;;;20.36;43.09;101738.56;2086449;28;5014;-75
2021/04/17 05:07:32;;;;;;;;;;;;;;;20.37;43.12;101747.94;2086469;28;4082;-75
2021/04/17 05:08:33;;;;;;;;;;;;;;;20.37;43.38;101745.97;2085952;28;3995;-75
2021/04/17 05:09:34;;;;;;;;;;;;;;;20.38;43.44;101743.94;2086211;28;4014;-75
2021/04/17 05:10:35;;;;;;;;;;;;;;;20.39;43.36;101751.31;2086301;28;4001;-75
2021/04/17 05:11:36;;;;;;;;;;;;;;;20.40;43.46;101741.59;2086290;28;4049;-75
2021/04/17 05:12:37;;;;;;;;;;;;;;;20.40;43.53;101741.59;2085724;28;3837;-75
2021/04/17 05:13:37;;;;;;;;;;;;;;;20.40;43.61;101736.78;2086460;28;3992;-76
2021/04/17 05:14:38;;;;;;;;;;;;;;;20.41;43.54;101743.28;2086496;28;4162;-74
2021/04/17 05:15:39;;;;;;;;;;;;;;;20.41;43.66;101740.44;2086269;28;3987;-74
2021/04/17 05:16:39;;;;;;;;;;;;;;;20.42;43.72;101742.13;2085593;28;4018;-74